sensor_id;sensor_type;location;lat;lon;timestamp;temperature;humidity
60039;DHT22;45916;52.734;6.544;2022-10-28T00:00:48;14.10;99.90
60039;DHT22;45916;52.734;6.544;2022-10-28T00:03:14;14.00;99.90
60039;DHT22;45916;52.734;6.544;2022-10-28T00:05:39;14.00;99.90
60039;DHT22;45916;52.734;6.544;2022-10-28T00:08:06;13.90;99.90
60039;DHT22;45916;52.734;6.544;2022-10-28T00:10:31;13.90;99.90
60039;DHT22;45916;52.734;6.544;2022-10-28T00:12:57;13.90;99.90
60039;DHT22;45916;52.734;6.544;2022-10-28T00:15:23;13.80;99.90
60039;DHT22;45916;52.734;6.544;2022-10-28T00:17:48;13.80;99.90
60039;DHT22;45916;52.734;6.544;2022-10-28T00:20:14;13.80;99.90
60039;DHT22;45916;52.734;6.544;2022-10-28T00:22:40;13.80;99.90
60039;DHT22;45916;52.734;6.544;2022-10-28T00:25:06;13.80;99.90
60039;DHT22;45916;52.734;6.544;2022-10-28T00:27:32;13.90;99.90
60039;DHT22;45916;52.734;6.544;2022-10-28T00:29:59;13.90;99.90
60039;DHT22;45916;52.734;6.544;2022-10-28T00:32:27;13.90;99.90
60039;DHT22;45916;52.734;6.544;2022-10-28T00:34:52;14.10;99.90
60039;DHT22;45916;52.734;6.544;2022-10-28T00:37:18;14.10;99.90
60039;DHT22;45916;52.734;6.544;2022-10-28T00:39:43;14.10;99.90
60039;DHT22;45916;52.734;6.544;2022-10-28T00:42:09;14.20;99.90
60039;DHT22;45916;52.734;6.544;2022-10-28T00:44:58;14.20;99.90
60039;DHT22;45916;52.734;6.544;2022-10-28T00:50:12;14.30;99.90
60039;DHT22;45916;52.734;6.544;2022-10-28T00:52:40;14.30;99.90
60039;DHT22;45916;52.734;6.544;2022-10-28T00:55:08;14.30;99.90
60039;DHT22;45916;52.734;6.544;2022-10-28T00:57:36;14.30;99.90
60039;DHT22;45916;52.734;6.544;2022-10-28T01:00:05;14.40;99.90
60039;DHT22;45916;52.734;6.544;2022-10-28T01:02:35;14.40;99.90
60039;DHT22;45916;52.734;6.544;2022-10-28T01:05:04;14.40;99.90
60039;DHT22;45916;52.734;6.544;2022-10-28T01:07:29;14.40;99.90
60039;DHT22;45916;52.734;6.544;2022-10-28T01:09:55;14.40;99.90
60039;DHT22;45916;52.734;6.544;2022-10-28T01:12:45;14.30;99.90
60039;DHT22;45916;52.734;6.544;2022-10-28T01:17:55;14.50;99.90
60039;DHT22;45916;52.734;6.544;2022-10-28T01:23:13;14.60;99.90
60039;DHT22;45916;52.734;6.544;2022-10-28T01:29:09;14.70;99.90
60039;DHT22;45916;52.734;6.544;2022-10-28T01:34:58;14.80;99.90
60039;DHT22;45916;52.734;6.544;2022-10-28T01:37:33;14.90;99.90
60039;DHT22;45916;52.734;6.544;2022-10-28T01:40:05;14.90;99.90
60039;DHT22;45916;52.734;6.544;2022-10-28T01:42:46;14.90;99.90
60039;DHT22;45916;52.734;6.544;2022-10-28T01:50:27;14.90;99.90
60039;DHT22;45916;52.734;6.544;2022-10-28T01:52:57;15.00;99.90
60039;DHT22;45916;52.734;6.544;2022-10-28T01:55:30;14.90;99.90
60039;DHT22;45916;52.734;6.544;2022-10-28T01:57:59;14.90;99.90
60039;DHT22;45916;52.734;6.544;2022-10-28T02:00:29;14.90;99.90
60039;DHT22;45916;52.734;6.544;2022-10-28T02:02:56;14.90;99.90
60039;DHT22;45916;52.734;6.544;2022-10-28T02:13:34;14.90;99.90
60039;DHT22;45916;52.734;6.544;2022-10-28T02:16:11;14.80;99.90
60039;DHT22;45916;52.734;6.544;2022-10-28T02:18:58;14.80;99.90
60039;DHT22;45916;52.734;6.544;2022-10-28T02:25:14;14.80;99.90
60039;DHT22;45916;52.734;6.544;2022-10-28T02:27:52;14.80;99.90
60039;DHT22;45916;52.734;6.544;2022-10-28T02:30:24;14.70;99.90
60039;DHT22;45916;52.734;6.544;2022-10-28T02:32:56;14.70;99.90
60039;DHT22;45916;52.734;6.544;2022-10-28T02:37:57;14.70;99.90
60039;DHT22;45916;52.734;6.544;2022-10-28T02:40:26;14.60;99.90
60039;DHT22;45916;52.734;6.544;2022-10-28T02:43:01;14.60;99.90
60039;DHT22;45916;52.734;6.544;2022-10-28T02:45:33;14.60;99.90
60039;DHT22;45916;52.734;6.544;2022-10-28T02:48:05;14.60;99.90
60039;DHT22;45916;52.734;6.544;2022-10-28T02:50:35;14.60;99.90
60039;DHT22;45916;52.734;6.544;2022-10-28T02:53:05;14.50;99.90
60039;DHT22;45916;52.734;6.544;2022-10-28T02:55:37;14.60;99.90
60039;DHT22;45916;52.734;6.544;2022-10-28T02:58:04;14.50;99.90
60039;DHT22;45916;52.734;6.544;2022-10-28T03:00:30;14.50;99.90
60039;DHT22;45916;52.734;6.544;2022-10-28T03:02:56;14.50;99.90
60039;DHT22;45916;52.734;6.544;2022-10-28T03:05:22;14.50;99.90
60039;DHT22;45916;52.734;6.544;2022-10-28T03:07:47;14.50;99.90
60039;DHT22;45916;52.734;6.544;2022-10-28T03:10:14;14.50;99.90
60039;DHT22;45916;52.734;6.544;2022-10-28T03:12:40;14.60;99.90
60039;DHT22;45916;52.734;6.544;2022-10-28T03:15:06;14.60;99.90
60039;DHT22;45916;52.734;6.544;2022-10-28T03:17:31;14.60;99.90
60039;DHT22;45916;52.734;6.544;2022-10-28T03:19:57;14.60;99.90
60039;DHT22;45916;52.734;6.544;2022-10-28T03:22:23;14.60;99.90
60039;DHT22;45916;52.734;6.544;2022-10-28T03:24:49;14.60;99.90
60039;DHT22;45916;52.734;6.544;2022-10-28T03:27:14;14.60;99.90
60039;DHT22;45916;52.734;6.544;2022-10-28T03:29:40;14.60;99.90
60039;DHT22;45916;52.734;6.544;2022-10-28T03:32:06;14.60;99.90
60039;DHT22;45916;52.734;6.544;2022-10-28T03:34:31;14.60;99.90
60039;DHT22;45916;52.734;6.544;2022-10-28T03:36:57;14.60;99.90
60039;DHT22;45916;52.734;6.544;2022-10-28T03:39:23;14.60;99.90
60039;DHT22;45916;52.734;6.544;2022-10-28T03:41:49;14.60;99.90
60039;DHT22;45916;52.734;6.544;2022-10-28T03:44:14;14.50;99.90
60039;DHT22;45916;52.734;6.544;2022-10-28T03:46:40;14.50;99.90
60039;DHT22;45916;52.734;6.544;2022-10-28T03:49:06;14.50;99.90
60039;DHT22;45916;52.734;6.544;2022-10-28T03:51:31;14.50;99.90
60039;DHT22;45916;52.734;6.544;2022-10-28T03:53:57;14.50;99.90
60039;DHT22;45916;52.734;6.544;2022-10-28T03:56:23;14.60;99.90
60039;DHT22;45916;52.734;6.544;2022-10-28T03:58:49;14.60;99.90
60039;DHT22;45916;52.734;6.544;2022-10-28T04:01:14;14.60;99.90
60039;DHT22;45916;52.734;6.544;2022-10-28T04:03:40;14.60;99.90
60039;DHT22;45916;52.734;6.544;2022-10-28T04:06:06;14.60;99.90
60039;DHT22;45916;52.734;6.544;2022-10-28T04:08:34;14.60;99.90
60039;DHT22;45916;52.734;6.544;2022-10-28T04:11:00;14.60;99.90
60039;DHT22;45916;52.734;6.544;2022-10-28T04:13:26;14.70;99.90
60039;DHT22;45916;52.734;6.544;2022-10-28T04:15:51;14.60;99.90
60039;DHT22;45916;52.734;6.544;2022-10-28T04:18:17;14.60;99.90
60039;DHT22;45916;52.734;6.544;2022-10-28T04:20:44;14.60;99.90
60039;DHT22;45916;52.734;6.544;2022-10-28T04:23:14;14.60;99.90
60039;DHT22;45916;52.734;6.544;2022-10-28T04:25:40;14.70;99.90
60039;DHT22;45916;52.734;6.544;2022-10-28T04:28:05;14.70;99.90
60039;DHT22;45916;52.734;6.544;2022-10-28T04:30:31;14.70;99.90
60039;DHT22;45916;52.734;6.544;2022-10-28T04:32:57;14.70;99.90
60039;DHT22;45916;52.734;6.544;2022-10-28T04:35:22;14.60;99.90
60039;DHT22;45916;52.734;6.544;2022-10-28T04:37:48;14.60;99.90
60039;DHT22;45916;52.734;6.544;2022-10-28T04:40:14;14.60;99.90
60039;DHT22;45916;52.734;6.544;2022-10-28T04:42:40;14.60;99.90
60039;DHT22;45916;52.734;6.544;2022-10-28T04:45:06;14.60;99.90
60039;DHT22;45916;52.734;6.544;2022-10-28T04:47:32;14.60;99.90
60039;DHT22;45916;52.734;6.544;2022-10-28T04:49:57;14.60;99.90
60039;DHT22;45916;52.734;6.544;2022-10-28T04:52:23;14.60;99.90
60039;DHT22;45916;52.734;6.544;2022-10-28T04:54:48;14.60;99.90
60039;DHT22;45916;52.734;6.544;2022-10-28T04:57:14;14.60;99.90
60039;DHT22;45916;52.734;6.544;2022-10-28T04:59:40;14.60;99.90
60039;DHT22;45916;52.734;6.544;2022-10-28T05:02:05;14.60;99.90
60039;DHT22;45916;52.734;6.544;2022-10-28T05:04:31;14.60;99.90
60039;DHT22;45916;52.734;6.544;2022-10-28T05:06:57;14.60;99.90
60039;DHT22;45916;52.734;6.544;2022-10-28T05:09:22;14.60;99.90
60039;DHT22;45916;52.734;6.544;2022-10-28T05:11:48;14.60;99.90
60039;DHT22;45916;52.734;6.544;2022-10-28T05:14:14;14.60;99.90
60039;DHT22;45916;52.734;6.544;2022-10-28T05:16:39;14.60;99.90
60039;DHT22;45916;52.734;6.544;2022-10-28T05:19:05;14.60;99.90
60039;DHT22;45916;52.734;6.544;2022-10-28T05:21:31;14.60;99.90
60039;DHT22;45916;52.734;6.544;2022-10-28T05:23:56;14.60;99.90
60039;DHT22;45916;52.734;6.544;2022-10-28T05:26:22;14.60;99.90
60039;DHT22;45916;52.734;6.544;2022-10-28T05:28:49;14.60;99.90
60039;DHT22;45916;52.734;6.544;2022-10-28T05:31:15;14.60;99.90
60039;DHT22;45916;52.734;6.544;2022-10-28T05:33:44;14.50;99.90
60039;DHT22;45916;52.734;6.544;2022-10-28T05:36:10;14.50;99.90
60039;DHT22;45916;52.734;6.544;2022-10-28T05:38:36;14.50;99.90
60039;DHT22;45916;52.734;6.544;2022-10-28T05:41:01;14.40;99.90
60039;DHT22;45916;52.734;6.544;2022-10-28T05:43:28;14.40;99.90
60039;DHT22;45916;52.734;6.544;2022-10-28T05:45:55;14.40;99.90
60039;DHT22;45916;52.734;6.544;2022-10-28T05:48:21;14.40;99.90
60039;DHT22;45916;52.734;6.544;2022-10-28T05:50:47;14.30;99.90
60039;DHT22;45916;52.734;6.544;2022-10-28T05:53:13;14.30;99.90
60039;DHT22;45916;52.734;6.544;2022-10-28T05:55:38;14.20;99.90
60039;DHT22;45916;52.734;6.544;2022-10-28T05:58:04;14.10;99.90
60039;DHT22;45916;52.734;6.544;2022-10-28T06:00:30;14.10;99.90
60039;DHT22;45916;52.734;6.544;2022-10-28T06:03:07;14.00;99.90
60039;DHT22;45916;52.734;6.544;2022-10-28T06:05:44;14.00;99.90
60039;DHT22;45916;52.734;6.544;2022-10-28T06:08:11;14.00;99.90
60039;DHT22;45916;52.734;6.544;2022-10-28T06:10:37;14.10;99.90
60039;DHT22;45916;52.734;6.544;2022-10-28T06:13:03;14.10;99.90
60039;DHT22;45916;52.734;6.544;2022-10-28T06:15:28;14.10;99.90
60039;DHT22;45916;52.734;6.544;2022-10-28T06:17:54;14.10;99.90
60039;DHT22;45916;52.734;6.544;2022-10-28T06:20:20;14.10;99.90
60039;DHT22;45916;52.734;6.544;2022-10-28T06:22:50;14.00;99.90
60039;DHT22;45916;52.734;6.544;2022-10-28T06:25:17;14.00;99.90
60039;DHT22;45916;52.734;6.544;2022-10-28T06:27:43;14.00;99.90
60039;DHT22;45916;52.734;6.544;2022-10-28T06:30:09;14.00;99.90
60039;DHT22;45916;52.734;6.544;2022-10-28T06:32:34;14.10;99.90
60039;DHT22;45916;52.734;6.544;2022-10-28T06:35:00;14.10;99.90
60039;DHT22;45916;52.734;6.544;2022-10-28T06:37:26;14.10;99.90
60039;DHT22;45916;52.734;6.544;2022-10-28T06:39:51;14.20;99.90
60039;DHT22;45916;52.734;6.544;2022-10-28T06:42:18;14.20;99.90
60039;DHT22;45916;52.734;6.544;2022-10-28T06:44:44;14.30;99.90
60039;DHT22;45916;52.734;6.544;2022-10-28T06:47:10;14.30;99.90
60039;DHT22;45916;52.734;6.544;2022-10-28T06:49:36;14.50;99.90
60039;DHT22;45916;52.734;6.544;2022-10-28T06:52:02;14.50;99.90
60039;DHT22;45916;52.734;6.544;2022-10-28T06:54:28;14.50;99.90
60039;DHT22;45916;52.734;6.544;2022-10-28T06:56:53;14.60;99.90
60039;DHT22;45916;52.734;6.544;2022-10-28T06:59:19;14.60;99.90
60039;DHT22;45916;52.734;6.544;2022-10-28T07:01:45;14.70;99.90
60039;DHT22;45916;52.734;6.544;2022-10-28T07:04:11;14.80;99.90
60039;DHT22;45916;52.734;6.544;2022-10-28T07:06:40;14.90;99.90
60039;DHT22;45916;52.734;6.544;2022-10-28T07:09:06;15.00;99.90
60039;DHT22;45916;52.734;6.544;2022-10-28T07:11:32;15.30;99.90
60039;DHT22;45916;52.734;6.544;2022-10-28T07:13:58;15.60;99.90
60039;DHT22;45916;52.734;6.544;2022-10-28T07:16:24;15.80;99.90
60039;DHT22;45916;52.734;6.544;2022-10-28T07:18:49;16.00;99.90
60039;DHT22;45916;52.734;6.544;2022-10-28T07:21:15;16.20;99.90
60039;DHT22;45916;52.734;6.544;2022-10-28T07:23:45;16.80;99.90
60039;DHT22;45916;52.734;6.544;2022-10-28T07:26:10;17.50;99.90
60039;DHT22;45916;52.734;6.544;2022-10-28T07:28:36;18.30;99.90
60039;DHT22;45916;52.734;6.544;2022-10-28T07:31:02;19.20;99.90
60039;DHT22;45916;52.734;6.544;2022-10-28T07:33:28;19.80;99.90
60039;DHT22;45916;52.734;6.544;2022-10-28T07:35:54;20.20;99.90
60039;DHT22;45916;52.734;6.544;2022-10-28T07:38:20;20.70;99.90
60039;DHT22;45916;52.734;6.544;2022-10-28T07:40:46;21.10;99.90
60039;DHT22;45916;52.734;6.544;2022-10-28T07:43:12;21.40;99.90
60039;DHT22;45916;52.734;6.544;2022-10-28T07:45:38;21.60;99.90
60039;DHT22;45916;52.734;6.544;2022-10-28T07:48:04;21.80;99.90
60039;DHT22;45916;52.734;6.544;2022-10-28T07:50:30;22.20;99.90
60039;DHT22;45916;52.734;6.544;2022-10-28T07:52:56;22.50;99.90
60039;DHT22;45916;52.734;6.544;2022-10-28T07:55:21;22.70;99.90
60039;DHT22;45916;52.734;6.544;2022-10-28T07:57:47;22.70;99.90
60039;DHT22;45916;52.734;6.544;2022-10-28T08:00:14;22.50;99.90
60039;DHT22;45916;52.734;6.544;2022-10-28T08:02:39;22.00;99.90
60039;DHT22;45916;52.734;6.544;2022-10-28T08:05:05;22.10;99.90
60039;DHT22;45916;52.734;6.544;2022-10-28T08:07:31;22.00;99.90
60039;DHT22;45916;52.734;6.544;2022-10-28T08:09:57;22.00;99.90
60039;DHT22;45916;52.734;6.544;2022-10-28T08:12:23;22.10;99.90
60039;DHT22;45916;52.734;6.544;2022-10-28T08:14:49;22.10;99.90
60039;DHT22;45916;52.734;6.544;2022-10-28T08:17:15;22.00;99.90
60039;DHT22;45916;52.734;6.544;2022-10-28T08:19:40;21.90;99.90
60039;DHT22;45916;52.734;6.544;2022-10-28T08:22:06;21.90;99.90
60039;DHT22;45916;52.734;6.544;2022-10-28T08:24:32;22.10;99.90
60039;DHT22;45916;52.734;6.544;2022-10-28T08:26:58;22.00;99.90
60039;DHT22;45916;52.734;6.544;2022-10-28T08:29:24;22.10;99.90
60039;DHT22;45916;52.734;6.544;2022-10-28T08:31:49;22.20;99.90
60039;DHT22;45916;52.734;6.544;2022-10-28T08:34:15;22.30;99.90
60039;DHT22;45916;52.734;6.544;2022-10-28T08:36:40;22.30;99.90
60039;DHT22;45916;52.734;6.544;2022-10-28T08:39:07;22.60;99.90
60039;DHT22;45916;52.734;6.544;2022-10-28T08:41:44;23.20;99.90
60039;DHT22;45916;52.734;6.544;2022-10-28T08:49:29;25.20;99.90
60039;DHT22;45916;52.734;6.544;2022-10-28T08:54:54;27.50;90.60
60039;DHT22;45916;52.734;6.544;2022-10-28T09:00:06;29.90;71.30
60039;DHT22;45916;52.734;6.544;2022-10-28T09:02:46;30.50;65.90
60039;DHT22;45916;52.734;6.544;2022-10-28T09:05:24;31.10;65.20
60039;DHT22;45916;52.734;6.544;2022-10-28T09:07:50;31.20;64.10
60039;DHT22;45916;52.734;6.544;2022-10-28T09:10:30;30.90;62.40
60039;DHT22;45916;52.734;6.544;2022-10-28T09:13:27;30.40;62.80
60039;DHT22;45916;52.734;6.544;2022-10-28T09:16:13;29.60;63.10
60039;DHT22;45916;52.734;6.544;2022-10-28T09:21:47;28.20;65.90
60039;DHT22;45916;52.734;6.544;2022-10-28T09:24:22;27.50;68.00
60039;DHT22;45916;52.734;6.544;2022-10-28T09:37:23;25.40;76.10
60039;DHT22;45916;52.734;6.544;2022-10-28T09:39:58;25.20;78.00
60039;DHT22;45916;52.734;6.544;2022-10-28T09:42:39;24.80;81.20
60039;DHT22;45916;52.734;6.544;2022-10-28T09:45:12;24.70;84.60
60039;DHT22;45916;52.734;6.544;2022-10-28T09:47:41;24.20;87.80
60039;DHT22;45916;52.734;6.544;2022-10-28T09:50:20;24.10;92.20
60039;DHT22;45916;52.734;6.544;2022-10-28T09:52:58;23.90;95.60
60039;DHT22;45916;52.734;6.544;2022-10-28T09:55:26;23.80;99.80
60039;DHT22;45916;52.734;6.544;2022-10-28T09:57:52;23.60;99.90
60039;DHT22;45916;52.734;6.544;2022-10-28T10:00:17;23.40;99.90
60039;DHT22;45916;52.734;6.544;2022-10-28T10:02:43;23.20;99.90
60039;DHT22;45916;52.734;6.544;2022-10-28T10:05:11;23.10;99.90
60039;DHT22;45916;52.734;6.544;2022-10-28T10:07:42;22.80;99.90
60039;DHT22;45916;52.734;6.544;2022-10-28T10:12:50;22.50;99.90
60039;DHT22;45916;52.734;6.544;2022-10-28T10:15:38;22.40;99.90
60039;DHT22;45916;52.734;6.544;2022-10-28T10:18:06;22.60;99.90
60039;DHT22;45916;52.734;6.544;2022-10-28T10:20:49;23.00;99.90
60039;DHT22;45916;52.734;6.544;2022-10-28T10:23:32;23.30;99.90
60039;DHT22;45916;52.734;6.544;2022-10-28T10:26:15;23.70;99.90
60039;DHT22;45916;52.734;6.544;2022-10-28T10:28:45;24.00;99.90
60039;DHT22;45916;52.734;6.544;2022-10-28T10:31:18;24.00;99.90
60039;DHT22;45916;52.734;6.544;2022-10-28T10:33:49;23.90;99.90
60039;DHT22;45916;52.734;6.544;2022-10-28T10:36:17;23.70;99.90
60039;DHT22;45916;52.734;6.544;2022-10-28T10:38:50;23.40;99.90
60039;DHT22;45916;52.734;6.544;2022-10-28T10:41:37;23.20;99.90
60039;DHT22;45916;52.734;6.544;2022-10-28T10:46:45;22.60;99.90
60039;DHT22;45916;52.734;6.544;2022-10-28T10:49:13;22.40;99.90
60039;DHT22;45916;52.734;6.544;2022-10-28T10:54:30;22.20;99.90
60039;DHT22;45916;52.734;6.544;2022-10-28T10:57:15;22.20;99.90
60039;DHT22;45916;52.734;6.544;2022-10-28T10:59:51;22.00;99.90
60039;DHT22;45916;52.734;6.544;2022-10-28T11:02:29;21.90;99.90
60039;DHT22;45916;52.734;6.544;2022-10-28T11:04:58;21.90;99.90
60039;DHT22;45916;52.734;6.544;2022-10-28T11:07:24;22.00;99.90
60039;DHT22;45916;52.734;6.544;2022-10-28T11:09:52;22.20;99.90
60039;DHT22;45916;52.734;6.544;2022-10-28T11:12:32;22.40;99.90
60039;DHT22;45916;52.734;6.544;2022-10-28T11:15:24;22.70;99.90
60039;DHT22;45916;52.734;6.544;2022-10-28T11:18:02;23.00;99.90
60039;DHT22;45916;52.734;6.544;2022-10-28T11:20:38;23.10;99.90
60039;DHT22;45916;52.734;6.544;2022-10-28T11:25:52;23.20;99.90
60039;DHT22;45916;52.734;6.544;2022-10-28T11:31:29;22.80;99.90
60039;DHT22;45916;52.734;6.544;2022-10-28T11:39:44;22.30;99.90
60039;DHT22;45916;52.734;6.544;2022-10-28T11:45:04;22.30;99.90
60039;DHT22;45916;52.734;6.544;2022-10-28T11:53:24;22.50;99.90
60039;DHT22;45916;52.734;6.544;2022-10-28T11:58:40;22.30;99.90
60039;DHT22;45916;52.734;6.544;2022-10-28T12:01:19;22.20;99.90
60039;DHT22;45916;52.734;6.544;2022-10-28T12:04:18;22.10;99.90
60039;DHT22;45916;52.734;6.544;2022-10-28T12:12:32;21.90;99.90
60039;DHT22;45916;52.734;6.544;2022-10-28T12:17:39;22.00;99.90
60039;DHT22;45916;52.734;6.544;2022-10-28T12:22:59;22.20;99.90
60039;DHT22;45916;52.734;6.544;2022-10-28T12:25:33;22.30;99.90
60039;DHT22;45916;52.734;6.544;2022-10-28T12:28:15;22.50;99.90
60039;DHT22;45916;52.734;6.544;2022-10-28T12:30:44;22.60;99.90
60039;DHT22;45916;52.734;6.544;2022-10-28T12:33:24;22.60;99.90
60039;DHT22;45916;52.734;6.544;2022-10-28T12:36:36;22.70;99.90
60039;DHT22;45916;52.734;6.544;2022-10-28T12:42:01;22.80;99.90
60039;DHT22;45916;52.734;6.544;2022-10-28T12:44:28;22.80;99.90
60039;DHT22;45916;52.734;6.544;2022-10-28T12:52:32;22.60;99.90
60039;DHT22;45916;52.734;6.544;2022-10-28T12:55:13;22.50;99.90
60039;DHT22;45916;52.734;6.544;2022-10-28T12:57:43;22.40;99.90
60039;DHT22;45916;52.734;6.544;2022-10-28T13:00:34;22.40;99.90
60039;DHT22;45916;52.734;6.544;2022-10-28T13:03:06;22.40;99.90
60039;DHT22;45916;52.734;6.544;2022-10-28T13:13:50;22.10;99.90
60039;DHT22;45916;52.734;6.544;2022-10-28T13:27:12;22.20;99.90
60039;DHT22;45916;52.734;6.544;2022-10-28T13:29:40;22.30;99.90
60039;DHT22;45916;52.734;6.544;2022-10-28T13:34:56;22.40;99.90
60039;DHT22;45916;52.734;6.544;2022-10-28T13:37:30;22.40;99.90
60039;DHT22;45916;52.734;6.544;2022-10-28T13:39:56;22.40;99.90
60039;DHT22;45916;52.734;6.544;2022-10-28T13:44:54;22.20;99.90
60039;DHT22;45916;52.734;6.544;2022-10-28T13:47:27;22.10;99.90
60039;DHT22;45916;52.734;6.544;2022-10-28T13:57:42;21.60;99.90
60039;DHT22;45916;52.734;6.544;2022-10-28T14:02:47;21.50;99.90
60039;DHT22;45916;52.734;6.544;2022-10-28T14:05:16;21.40;99.90
60039;DHT22;45916;52.734;6.544;2022-10-28T14:07:56;21.30;99.90
60039;DHT22;45916;52.734;6.544;2022-10-28T14:13:00;21.20;99.90
60039;DHT22;45916;52.734;6.544;2022-10-28T14:15:35;21.10;99.90
60039;DHT22;45916;52.734;6.544;2022-10-28T14:42:24;20.30;99.90
60039;DHT22;45916;52.734;6.544;2022-10-28T14:45:17;20.20;99.90
60039;DHT22;45916;52.734;6.544;2022-10-28T14:48:16;20.20;99.90
60039;DHT22;45916;52.734;6.544;2022-10-28T14:50:44;20.10;99.90
60039;DHT22;45916;52.734;6.544;2022-10-28T14:53:23;20.00;99.90
60039;DHT22;45916;52.734;6.544;2022-10-28T14:56:04;20.00;99.90
60039;DHT22;45916;52.734;6.544;2022-10-28T14:58:40;19.90;99.90
60039;DHT22;45916;52.734;6.544;2022-10-28T15:03:42;19.90;99.90
60039;DHT22;45916;52.734;6.544;2022-10-28T15:06:34;19.80;99.90
60039;DHT22;45916;52.734;6.544;2022-10-28T15:09:30;19.80;99.90
60039;DHT22;45916;52.734;6.544;2022-10-28T15:12:05;19.70;99.90
60039;DHT22;45916;52.734;6.544;2022-10-28T15:14:37;19.70;99.90
60039;DHT22;45916;52.734;6.544;2022-10-28T15:17:26;19.60;99.90
60039;DHT22;45916;52.734;6.544;2022-10-28T15:19:54;19.60;99.90
60039;DHT22;45916;52.734;6.544;2022-10-28T15:22:28;19.50;99.90
60039;DHT22;45916;52.734;6.544;2022-10-28T15:24:57;19.50;99.90
60039;DHT22;45916;52.734;6.544;2022-10-28T15:27:25;19.30;99.90
60039;DHT22;45916;52.734;6.544;2022-10-28T15:29:51;19.30;99.90
60039;DHT22;45916;52.734;6.544;2022-10-28T15:34:46;19.20;99.90
60039;DHT22;45916;52.734;6.544;2022-10-28T15:37:20;19.10;99.90
60039;DHT22;45916;52.734;6.544;2022-10-28T15:39:47;19.10;99.90
60039;DHT22;45916;52.734;6.544;2022-10-28T15:42:38;19.00;99.90
60039;DHT22;45916;52.734;6.544;2022-10-28T15:45:06;18.90;99.90
60039;DHT22;45916;52.734;6.544;2022-10-28T15:47:39;18.90;99.90
60039;DHT22;45916;52.734;6.544;2022-10-28T15:52:43;18.70;99.90
60039;DHT22;45916;52.734;6.544;2022-10-28T15:58:00;18.60;99.90
60039;DHT22;45916;52.734;6.544;2022-10-28T16:00:29;18.50;99.90
60039;DHT22;45916;52.734;6.544;2022-10-28T16:03:03;18.40;99.90
60039;DHT22;45916;52.734;6.544;2022-10-28T16:08:12;18.30;99.90
60039;DHT22;45916;52.734;6.544;2022-10-28T16:11:04;18.20;99.90
60039;DHT22;45916;52.734;6.544;2022-10-28T16:13:36;18.10;99.90
60039;DHT22;45916;52.734;6.544;2022-10-28T16:16:11;18.10;99.90
60039;DHT22;45916;52.734;6.544;2022-10-28T16:21:26;18.00;99.90
60039;DHT22;45916;52.734;6.544;2022-10-28T16:23:53;18.00;99.90
60039;DHT22;45916;52.734;6.544;2022-10-28T16:26:26;18.00;99.90
60039;DHT22;45916;52.734;6.544;2022-10-28T16:28:52;18.00;99.90
60039;DHT22;45916;52.734;6.544;2022-10-28T16:31:20;18.00;99.90
60039;DHT22;45916;52.734;6.544;2022-10-28T16:33:47;18.00;99.90
60039;DHT22;45916;52.734;6.544;2022-10-28T16:36:13;18.00;99.90
60039;DHT22;45916;52.734;6.544;2022-10-28T16:38:39;18.10;99.90
60039;DHT22;45916;52.734;6.544;2022-10-28T16:41:06;18.00;99.90
60039;DHT22;45916;52.734;6.544;2022-10-28T16:43:36;18.10;99.90
60039;DHT22;45916;52.734;6.544;2022-10-28T16:46:01;18.10;99.90
60039;DHT22;45916;52.734;6.544;2022-10-28T16:48:29;18.00;99.90
60039;DHT22;45916;52.734;6.544;2022-10-28T16:50:58;18.00;99.90
60039;DHT22;45916;52.734;6.544;2022-10-28T16:53:25;18.10;99.90
60039;DHT22;45916;52.734;6.544;2022-10-28T16:55:51;18.10;99.90
60039;DHT22;45916;52.734;6.544;2022-10-28T16:58:18;18.00;99.90
60039;DHT22;45916;52.734;6.544;2022-10-28T17:00:44;18.00;99.90
60039;DHT22;45916;52.734;6.544;2022-10-28T17:03:12;18.00;99.90
60039;DHT22;45916;52.734;6.544;2022-10-28T17:05:39;18.00;99.90
60039;DHT22;45916;52.734;6.544;2022-10-28T17:08:05;18.00;99.90
60039;DHT22;45916;52.734;6.544;2022-10-28T17:10:30;17.90;99.90
60039;DHT22;45916;52.734;6.544;2022-10-28T17:12:56;17.90;99.90
60039;DHT22;45916;52.734;6.544;2022-10-28T17:15:22;17.80;99.90
60039;DHT22;45916;52.734;6.544;2022-10-28T17:17:49;17.70;99.90
60039;DHT22;45916;52.734;6.544;2022-10-28T17:20:15;17.70;99.90
60039;DHT22;45916;52.734;6.544;2022-10-28T17:22:41;17.60;99.90
60039;DHT22;45916;52.734;6.544;2022-10-28T17:25:07;17.60;99.90
60039;DHT22;45916;52.734;6.544;2022-10-28T17:27:33;17.50;99.90
60039;DHT22;45916;52.734;6.544;2022-10-28T17:29:59;17.50;99.90
60039;DHT22;45916;52.734;6.544;2022-10-28T17:32:25;17.40;99.90
60039;DHT22;45916;52.734;6.544;2022-10-28T17:34:50;17.40;99.90
60039;DHT22;45916;52.734;6.544;2022-10-28T17:37:16;17.40;99.90
60039;DHT22;45916;52.734;6.544;2022-10-28T17:39:42;17.40;99.90
60039;DHT22;45916;52.734;6.544;2022-10-28T17:42:08;17.30;99.90
60039;DHT22;45916;52.734;6.544;2022-10-28T17:44:34;17.30;99.90
60039;DHT22;45916;52.734;6.544;2022-10-28T17:47:00;17.30;99.90
60039;DHT22;45916;52.734;6.544;2022-10-28T17:49:25;17.20;99.90
60039;DHT22;45916;52.734;6.544;2022-10-28T17:51:51;17.30;99.90
60039;DHT22;45916;52.734;6.544;2022-10-28T17:54:17;17.20;99.90
60039;DHT22;45916;52.734;6.544;2022-10-28T17:56:42;17.20;99.90
60039;DHT22;45916;52.734;6.544;2022-10-28T17:59:09;17.20;99.90
60039;DHT22;45916;52.734;6.544;2022-10-28T18:01:35;17.30;99.90
60039;DHT22;45916;52.734;6.544;2022-10-28T18:04:01;17.20;99.90
60039;DHT22;45916;52.734;6.544;2022-10-28T18:06:30;17.20;99.90
60039;DHT22;45916;52.734;6.544;2022-10-28T18:08:57;17.20;99.90
60039;DHT22;45916;52.734;6.544;2022-10-28T18:11:23;17.20;99.90
60039;DHT22;45916;52.734;6.544;2022-10-28T18:13:49;17.20;99.90
60039;DHT22;45916;52.734;6.544;2022-10-28T18:16:24;17.30;99.90
60039;DHT22;45916;52.734;6.544;2022-10-28T18:18:53;17.20;99.90
60039;DHT22;45916;52.734;6.544;2022-10-28T18:21:20;17.30;99.90
60039;DHT22;45916;52.734;6.544;2022-10-28T18:23:50;17.30;99.90
60039;DHT22;45916;52.734;6.544;2022-10-28T18:26:17;17.30;99.90
60039;DHT22;45916;52.734;6.544;2022-10-28T18:28:44;17.30;99.90
60039;DHT22;45916;52.734;6.544;2022-10-28T18:31:12;17.30;99.90
60039;DHT22;45916;52.734;6.544;2022-10-28T18:33:39;17.30;99.90
60039;DHT22;45916;52.734;6.544;2022-10-28T18:36:07;17.20;99.90
60039;DHT22;45916;52.734;6.544;2022-10-28T18:38:34;17.20;99.90
60039;DHT22;45916;52.734;6.544;2022-10-28T18:40:59;17.10;99.90
60039;DHT22;45916;52.734;6.544;2022-10-28T18:43:26;17.10;99.90
60039;DHT22;45916;52.734;6.544;2022-10-28T18:45:51;17.10;99.90
60039;DHT22;45916;52.734;6.544;2022-10-28T18:48:17;17.00;99.90
60039;DHT22;45916;52.734;6.544;2022-10-28T18:50:53;17.00;99.90